createdAt,value
2022-10-12T00:03:54.164Z,12.00
2022-10-12T00:07:57.167Z,12.00
2022-10-12T00:12:34.786Z,12.00
2022-10-12T00:16:39.488Z,12.00
2022-10-12T00:20:42.503Z,12.10
2022-10-12T00:24:45.488Z,12.00
2022-10-12T00:29:07.163Z,12.00
2022-10-12T00:33:11.606Z,12.00
2022-10-12T00:37:14.626Z,12.10
2022-10-12T00:41:51.906Z,12.10
2022-10-12T00:45:55.129Z,12.10
2022-10-12T00:50:03.956Z,12.10
2022-10-12T00:54:10.567Z,12.20
2022-10-12T00:58:16.562Z,12.20
2022-10-12T01:02:21.074Z,12.30
2022-10-12T01:06:56.850Z,12.30
2022-10-12T01:10:59.938Z,12.30
2022-10-12T01:15:03.745Z,12.30
2022-10-12T01:19:16.976Z,12.30
2022-10-12T01:23:45.239Z,12.30
2022-10-12T01:27:50.243Z,12.30
2022-10-12T01:32:00.308Z,12.30
2022-10-12T01:36:11.119Z,12.30
2022-10-12T01:40:17.565Z,12.30
2022-10-12T01:44:24.606Z,12.30
2022-10-12T01:49:01.135Z,12.20
2022-10-12T01:53:18.383Z,12.20
2022-10-12T01:57:32.637Z,12.20
2022-10-12T02:01:59.822Z,12.10
2022-10-12T02:06:07.227Z,12.10
2022-10-12T02:10:25.587Z,12.10
2022-10-12T02:14:55.215Z,12.10
2022-10-12T02:19:01.073Z,12.20
2022-10-12T02:23:04.983Z,12.30
2022-10-12T02:27:12.497Z,12.30
2022-10-12T02:31:26.145Z,12.40
2022-10-12T02:35:54.110Z,12.40
2022-10-12T02:40:04.224Z,12.40
2022-10-12T02:44:13.290Z,12.40
2022-10-12T02:48:21.747Z,12.40
2022-10-12T02:52:25.652Z,12.50
2022-10-12T02:56:28.649Z,12.50
2022-10-12T03:00:35.194Z,12.50
2022-10-12T03:05:09.027Z,12.50
2022-10-12T03:09:12.080Z,12.50
2022-10-12T03:13:48.602Z,12.50
2022-10-12T03:17:53.106Z,12.50
2022-10-12T03:21:56.115Z,12.50
2022-10-12T03:26:33.214Z,12.50
2022-10-12T03:30:36.342Z,12.50
2022-10-12T03:35:12.818Z,12.60
2022-10-12T03:39:17.532Z,12.60
2022-10-12T03:43:51.285Z,12.50
2022-10-12T03:47:54.289Z,12.50
2022-10-12T03:52:30.954Z,12.40
2022-10-12T03:57:09.297Z,12.40
2022-10-12T04:01:42.957Z,12.30
2022-10-12T04:05:46.055Z,12.30
2022-10-12T04:09:49.118Z,12.20
2022-10-12T04:13:53.542Z,12.30
2022-10-12T04:18:27.502Z,12.20
2022-10-12T04:23:04.125Z,12.20
2022-10-12T04:27:07.413Z,12.20
2022-10-12T04:31:11.855Z,12.20
2022-10-12T04:35:14.916Z,12.20
2022-10-12T04:39:51.463Z,12.20
2022-10-12T04:43:54.774Z,12.10
2022-10-12T04:48:29.956Z,12.10
2022-10-12T04:52:55.430Z,12.00
2022-10-12T04:56:58.429Z,12.00
2022-10-12T05:01:35.138Z,11.90
2022-10-12T05:05:39.699Z,11.80
2022-10-12T05:09:42.877Z,11.80
2022-10-12T05:13:45.932Z,11.80
2022-10-12T05:17:49.019Z,11.80
2022-10-12T05:22:26.427Z,11.80
2022-10-12T05:26:31.143Z,11.80
2022-10-12T05:30:34.557Z,11.80
2022-10-12T05:34:37.519Z,11.80
2022-10-12T05:38:40.513Z,11.80
2022-10-12T05:42:45.664Z,11.90
2022-10-12T05:47:19.273Z,11.80
2022-10-12T05:51:26.571Z,11.90
2022-10-12T05:56:00.036Z,11.90
2022-10-12T06:00:06.455Z,11.90
2022-10-12T06:04:09.555Z,12.00
2022-10-12T06:08:13.216Z,12.00
2022-10-12T06:12:49.918Z,12.00
2022-10-12T06:16:54.636Z,12.10
2022-10-12T06:21:28.364Z,12.10
2022-10-12T06:25:20.758Z,12.20
2022-10-12T06:29:25.025Z,12.20
2022-10-12T06:33:47.826Z,12.20
2022-10-12T06:38:22.032Z,12.20
2022-10-12T06:43:02.709Z,12.10
2022-10-12T06:47:06.235Z,12.20
2022-10-12T06:51:10.633Z,12.20
2022-10-12T06:55:44.849Z,12.20
2022-10-12T06:59:47.910Z,12.30
2022-10-12T07:03:50.926Z,12.40
2022-10-12T07:08:29.165Z,12.60
2022-10-12T07:12:32.266Z,12.90
2022-10-12T07:16:35.243Z,13.10
2022-10-12T07:21:11.917Z,13.20
2022-10-12T07:25:16.474Z,13.30
2022-10-12T07:29:19.472Z,13.50
2022-10-12T07:33:44.065Z,13.60
2022-10-12T07:37:49.930Z,13.70
2022-10-12T07:41:55.027Z,13.70
2022-10-12T07:46:28.849Z,13.80
2022-10-12T07:50:31.870Z,13.90
2022-10-12T07:55:11.465Z,14.10
2022-10-12T07:59:47.735Z,14.10
2022-10-12T08:03:51.002Z,14.20
2022-10-12T08:08:28.187Z,14.20
2022-10-12T08:13:05.287Z,14.30
2022-10-12T08:17:09.945Z,14.20
2022-10-12T08:21:43.819Z,14.20
2022-10-12T08:25:53.388Z,14.20
2022-10-12T08:30:26.956Z,14.10
2022-10-12T08:35:05.548Z,14.10
2022-10-12T08:39:08.857Z,14.10
2022-10-12T08:43:20.589Z,14.20
2022-10-12T08:47:51.560Z,14.40
2022-10-12T08:51:57.915Z,14.50
2022-10-12T08:56:01.586Z,14.60
2022-10-12T09:00:35.887Z,14.70
2022-10-12T09:05:08.966Z,14.90
2022-10-12T09:09:28.443Z,15.10
2022-10-12T09:13:43.694Z,15.40
2022-10-12T09:18:19.633Z,15.60
2022-10-12T09:22:46.608Z,15.90
2022-10-12T09:26:55.075Z,16.10
2022-10-12T09:31:08.628Z,16.50
2022-10-12T09:35:50.354Z,16.90
2022-10-12T09:39:53.927Z,17.10
2022-10-12T09:44:32.614Z,17.70
2022-10-12T09:48:35.588Z,18.30
2022-10-12T09:53:24.357Z,18.70
2022-10-12T09:57:31.588Z,19.10
2022-10-12T10:02:14.529Z,19.30
2022-10-12T10:06:43.790Z,19.60
2022-10-12T10:10:50.645Z,19.90
2022-10-12T10:15:29.188Z,20.40
2022-10-12T10:19:33.930Z,21.10
2022-10-12T10:24:09.526Z,21.20
2022-10-12T10:28:22.450Z,21.20
2022-10-12T10:32:29.029Z,21.50
2022-10-12T10:36:45.565Z,21.60
2022-10-12T10:41:18.141Z,21.70
2022-10-12T10:45:53.681Z,21.90
2022-10-12T10:49:59.438Z,21.60
2022-10-12T10:54:15.202Z,21.50
2022-10-12T10:58:38.799Z,21.20
2022-10-12T11:03:14.322Z,20.90
2022-10-12T11:07:48.401Z,20.50
2022-10-12T11:12:14.574Z,20.40
2022-10-12T11:16:30.598Z,20.30
2022-10-12T11:20:44.786Z,20.10
2022-10-12T11:25:14.322Z,20.10
2022-10-12T11:29:19.463Z,20.10
2022-10-12T11:33:26.480Z,20.00
2022-10-12T11:38:01.781Z,20.10
2022-10-12T11:42:21.264Z,20.40
2022-10-12T11:46:44.119Z,20.80
2022-10-12T11:50:49.719Z,21.10
2022-10-12T11:55:31.182Z,21.30
2022-10-12T12:00:06.568Z,21.30
2022-10-12T12:04:48.248Z,21.40
2022-10-12T12:08:58.347Z,21.60
2022-10-12T12:13:32.944Z,21.80
2022-10-12T12:18:12.357Z,21.90
2022-10-12T12:22:34.334Z,21.90
2022-10-12T12:26:55.780Z,21.70
2022-10-12T12:31:01.395Z,21.60
2022-10-12T12:35:05.102Z,21.70
2022-10-12T12:39:41.435Z,21.60
2022-10-12T12:44:30.031Z,21.60
2022-10-12T12:48:58.815Z,21.50
2022-10-12T12:53:32.199Z,21.60
2022-10-12T12:57:48.465Z,21.80
2022-10-12T13:02:20.465Z,21.70
2022-10-12T13:07:09.031Z,21.80
2022-10-12T13:11:45.823Z,21.70
2022-10-12T13:16:00.924Z,21.80
2022-10-12T13:20:27.870Z,21.90
2022-10-12T13:24:35.608Z,21.90
2022-10-12T13:29:08.784Z,21.70
2022-10-12T13:34:06.607Z,21.50
2022-10-12T13:38:21.823Z,21.50
2022-10-12T13:42:46.560Z,21.50
2022-10-12T13:47:24.767Z,21.50
2022-10-12T13:52:00.490Z,21.40
2022-10-12T13:56:33.740Z,21.30
2022-10-12T14:00:38.392Z,21.20
2022-10-12T14:05:18.096Z,21.00
2022-10-12T14:09:51.027Z,20.90
2022-10-12T14:14:31.323Z,20.70
2022-10-12T14:19:17.091Z,20.40
2022-10-12T14:23:43.358Z,20.20
2022-10-12T14:28:22.602Z,20.00
2022-10-12T14:32:52.330Z,19.90
2022-10-12T14:37:26.483Z,19.70
2022-10-12T14:42:03.590Z,19.60
2022-10-12T14:46:37.491Z,19.50
2022-10-12T14:51:18.260Z,19.60
2022-10-12T14:55:24.199Z,19.60
2022-10-12T14:59:28.745Z,19.70
2022-10-12T15:04:02.178Z,19.60
2022-10-12T15:08:09.001Z,19.60
2022-10-12T15:12:39.785Z,19.60
2022-10-12T15:17:16.832Z,19.60
2022-10-12T15:21:21.603Z,19.60
2022-10-12T15:25:27.550Z,19.50
2022-10-12T15:30:01.587Z,19.40
2022-10-12T15:34:59.536Z,19.30
2022-10-12T15:39:38.240Z,19.10
2022-10-12T15:43:51.881Z,18.90
2022-10-12T15:47:57.505Z,18.70
2022-10-12T15:52:31.292Z,18.50
2022-10-12T15:56:41.749Z,18.20
2022-10-12T16:01:13.396Z,17.90
2022-10-12T16:05:47.374Z,17.60
2022-10-12T16:09:50.458Z,17.40
2022-10-12T16:13:56.943Z,17.00
2022-10-12T16:18:27.873Z,16.70
2022-10-12T16:23:06.139Z,16.30
2022-10-12T16:27:40.472Z,16.10
2022-10-12T16:32:17.209Z,15.90
2022-10-12T16:36:55.706Z,15.70
2022-10-12T16:41:31.844Z,15.50
2022-10-12T16:46:04.744Z,15.30
2022-10-12T16:50:08.217Z,15.10
2022-10-12T16:54:46.870Z,15.00
2022-10-12T16:58:50.086Z,14.90
2022-10-12T17:03:27.675Z,14.80
2022-10-12T17:07:31.146Z,14.70
2022-10-12T17:11:37.416Z,14.50
2022-10-12T17:15:42.374Z,14.30
2022-10-12T17:20:16.186Z,14.00
2022-10-12T17:24:53.116Z,13.90
2022-10-12T17:29:32.466Z,13.80
2022-10-12T17:34:07.297Z,13.80
2022-10-12T17:38:41.218Z,13.90
2022-10-12T17:43:18.265Z,14.00
2022-10-12T17:47:56.924Z,14.00
2022-10-12T17:52:33.825Z,14.10
2022-10-12T17:57:10.751Z,14.10
2022-10-12T18:01:47.731Z,14.20
2022-10-12T18:06:26.140Z,14.10
2022-10-12T18:11:00.398Z,13.90
2022-10-12T18:15:42.134Z,13.80
2022-10-12T18:20:13.375Z,13.70
2022-10-12T18:24:51.550Z,13.60
2022-10-12T18:29:25.793Z,13.40
2022-10-12T18:34:02.604Z,13.30
2022-10-12T18:38:39.476Z,13.20
2022-10-12T18:42:44.013Z,13.10
2022-10-12T18:47:24.274Z,13.00
2022-10-12T18:51:58.349Z,12.90
2022-10-12T18:56:04.126Z,12.90
2022-10-12T19:00:11.109Z,13.00
2022-10-12T19:04:44.643Z,13.10
2022-10-12T19:09:21.437Z,13.20
2022-10-12T19:13:30.635Z,13.20
2022-10-12T19:18:08.995Z,13.30
2022-10-12T19:22:49.756Z,13.30
2022-10-12T19:26:52.835Z,13.40
2022-10-12T19:30:55.957Z,13.50
2022-10-12T19:35:36.854Z,13.70
2022-10-12T19:39:44.736Z,13.70
2022-10-12T19:44:15.420Z,13.80
2022-10-12T19:48:53.228Z,13.90
2022-10-12T19:53:28.693Z,14.00
2022-10-12T19:58:02.613Z,14.10
2022-10-12T20:02:41.373Z,14.10
2022-10-12T20:07:15.099Z,14.10
2022-10-12T20:11:53.526Z,14.10
2022-10-12T20:16:31.177Z,14.00
2022-10-12T20:21:01.683Z,13.90
2022-10-12T20:25:09.292Z,13.80
2022-10-12T20:29:42.638Z,13.70
2022-10-12T20:33:45.670Z,13.70
2022-10-12T20:37:48.788Z,13.70
2022-10-12T20:42:25.926Z,13.60
2022-10-12T20:46:31.587Z,13.60
2022-10-12T20:51:06.651Z,13.50
2022-10-12T20:55:10.992Z,13.40
2022-10-12T20:59:45.733Z,13.30
2022-10-12T21:03:50.311Z,13.20
2022-10-12T21:08:24.149Z,13.10
2022-10-12T21:12:27.526Z,13.10
2022-10-12T21:16:31.010Z,13.10
2022-10-12T21:21:04.452Z,13.00
2022-10-12T21:25:09.947Z,12.90
2022-10-12T21:29:13.615Z,12.80
2022-10-12T21:33:47.861Z,12.60
2022-10-12T21:37:50.926Z,12.50
2022-10-12T21:41:55.394Z,12.40
2022-10-12T21:46:03.912Z,12.40
2022-10-12T21:50:09.529Z,12.30
2022-10-12T21:54:12.686Z,12.30
2022-10-12T21:58:17.154Z,12.20
2022-10-12T22:02:20.767Z,12.10
2022-10-12T22:06:25.336Z,11.90
2022-10-12T22:10:28.411Z,11.80
2022-10-12T22:14:32.894Z,11.60
2022-10-12T22:19:06.438Z,11.30
2022-10-12T22:23:09.459Z,11.10
2022-10-12T22:27:12.486Z,11.00
2022-10-12T22:31:19.158Z,10.80
2022-10-12T22:35:50.230Z,10.70
2022-10-12T22:39:53.414Z,10.60
2022-10-12T22:43:57.402Z,10.50
2022-10-12T22:48:33.122Z,10.30
2022-10-12T22:52:36.236Z,10.10
2022-10-12T22:56:39.556Z,10.10
2022-10-12T23:00:43.302Z,10.00
2022-10-12T23:04:48.764Z,9.90
2022-10-12T23:09:22.074Z,9.80
2022-10-12T23:13:25.136Z,9.80
2022-10-12T23:17:28.177Z,9.70
2022-10-12T23:22:06.252Z,9.70
2022-10-12T23:26:11.186Z,9.70
2022-10-12T23:30:14.590Z,9.60
2022-10-12T23:34:51.342Z,9.70
2022-10-12T23:38:56.045Z,9.80
2022-10-12T23:43:30.440Z,9.80
2022-10-12T23:47:33.696Z,9.90
2022-10-12T23:51:36.898Z,9.90
2022-10-12T23:56:12.497Z,10.00
